createdAt,value
2019-05-23T00:00:32.494Z,8.73
2019-05-23T00:05:53.208Z,7.78
2019-05-23T00:11:22.288Z,9.45
2019-05-23T00:16:28.480Z,9.60
2019-05-23T00:21:34.920Z,6.97
2019-05-23T00:26:41.377Z,8.20
2019-05-23T00:31:50.692Z,8.73
2019-05-23T00:37:02.645Z,8.80
2019-05-23T00:42:07.899Z,14.13
2019-05-23T00:47:13.657Z,8.85
2019-05-23T00:52:18.059Z,7.05
2019-05-23T00:57:24.557Z,9.78
2019-05-23T01:02:32.161Z,6.75
2019-05-23T01:07:38.444Z,14.13
2019-05-23T01:12:47.589Z,12.33
2019-05-23T01:17:53.766Z,11.55
2019-05-23T01:23:18.617Z,13.43
2019-05-23T01:28:24.283Z,13.48
2019-05-23T01:33:30.898Z,6.60
2019-05-23T01:38:39.046Z,10.03
2019-05-23T01:43:44.089Z,16.00
2019-05-23T01:48:48.805Z,10.23
2019-05-23T01:53:54.836Z,3.58
2019-05-23T01:58:59.134Z,4.15
2019-05-23T02:04:04.328Z,8.75
2019-05-23T02:09:09.206Z,9.55
2019-05-23T02:14:15.051Z,5.62
2019-05-23T02:19:22.036Z,7.62
2019-05-23T02:24:27.743Z,7.87
2019-05-23T02:29:32.307Z,9.08
2019-05-23T02:34:37.786Z,9.48
2019-05-23T02:39:54.413Z,8.28
2019-05-23T02:44:59.492Z,6.50
2019-05-23T02:50:07.433Z,16.62
2019-05-23T02:55:22.523Z,13.18
2019-05-23T03:00:54.825Z,14.45
2019-05-23T03:05:57.594Z,13.88
2019-05-23T03:11:19.005Z,15.03
2019-05-23T03:16:35.267Z,14.98
2019-05-23T03:21:41.521Z,16.50
2019-05-23T03:27:20.505Z,10.58
2019-05-23T03:32:38.009Z,9.38
2019-05-23T03:37:42.454Z,13.93
2019-05-23T03:42:49.895Z,16.85
2019-05-23T03:48:01.292Z,15.15
2019-05-23T03:53:07.664Z,7.92
2019-05-23T03:58:14.009Z,9.18
2019-05-23T04:03:19.403Z,16.97
2019-05-23T04:08:25.858Z,15.05
2019-05-23T04:13:31.427Z,19.30
2019-05-23T04:18:38.769Z,17.25
2019-05-23T04:23:43.068Z,16.85
2019-05-23T04:28:47.673Z,19.62
2019-05-23T04:38:55.257Z,21.80
2019-05-23T04:43:59.569Z,23.52
2019-05-23T04:49:05.480Z,19.42
2019-05-23T04:54:11.557Z,19.55
2019-05-23T04:59:17.110Z,25.75
2019-05-23T05:04:23.179Z,25.25
2019-05-23T05:09:43.313Z,19.55
2019-05-23T05:14:47.672Z,20.88
2019-05-23T05:19:52.203Z,19.82
2019-05-23T05:24:59.148Z,21.80
2019-05-23T05:30:03.928Z,20.72
2019-05-23T05:35:11.502Z,18.77
2019-05-23T05:40:15.925Z,20.52
2019-05-23T05:45:20.586Z,19.12
2019-05-23T05:55:30.738Z,19.62
2019-05-23T06:00:50.115Z,15.70
2019-05-23T06:06:11.983Z,18.37
2019-05-23T06:11:18.781Z,18.35
2019-05-23T06:16:23.286Z,18.48
2019-05-23T06:21:30.801Z,15.90
2019-05-23T06:26:35.821Z,16.02
2019-05-23T06:31:40.812Z,16.97
2019-05-23T06:36:46.496Z,17.05
2019-05-23T06:41:50.817Z,19.20
2019-05-23T06:46:55.219Z,18.35
2019-05-23T06:51:59.293Z,18.65
2019-05-23T06:57:03.922Z,19.30
2019-05-23T07:07:13.051Z,18.52
2019-05-23T07:12:17.387Z,16.62
2019-05-23T07:17:22.309Z,17.90
2019-05-23T07:22:29.347Z,19.77
2019-05-23T07:27:36.188Z,17.42
2019-05-23T07:32:40.366Z,17.62
2019-05-23T07:37:44.547Z,13.50
2019-05-23T07:42:49.319Z,17.12
2019-05-23T07:47:56.728Z,14.10
2019-05-23T07:53:00.885Z,15.45
2019-05-23T07:58:06.972Z,16.20
2019-05-23T08:03:13.749Z,12.78
2019-05-23T08:08:21.962Z,17.12
2019-05-23T08:13:28.618Z,16.73
2019-05-23T08:18:32.743Z,13.28
2019-05-23T08:23:36.871Z,22.10
2019-05-23T08:28:56.645Z,16.25
2019-05-23T08:33:46.905Z,18.52
2019-05-23T08:38:50.990Z,18.98
2019-05-23T08:43:58.294Z,20.97
2019-05-23T08:49:03.465Z,22.37
2019-05-23T08:54:10.705Z,22.55
2019-05-23T08:59:16.084Z,29.77
2019-05-23T09:04:21.377Z,29.72
2019-05-23T09:09:30.454Z,19.23
2019-05-23T09:14:32.143Z,26.65
2019-05-23T09:24:39.456Z,35.35
2019-05-23T09:29:44.070Z,28.95
2019-05-23T09:34:48.634Z,27.50
2019-05-23T09:39:55.543Z,25.65
2019-05-23T09:45:01.286Z,24.77
2019-05-23T09:50:07.155Z,27.10
2019-05-23T09:55:11.936Z,20.32
2019-05-23T10:00:19.516Z,19.90
2019-05-23T10:05:41.008Z,19.05
2019-05-23T10:10:32.403Z,12.33
2019-05-23T10:15:46.347Z,14.78
2019-05-23T10:20:50.676Z,13.08
2019-05-23T10:31:00.075Z,13.83
2019-05-23T10:36:21.705Z,7.12
2019-05-23T10:41:29.162Z,8.43
2019-05-23T10:46:33.296Z,9.25
2019-05-23T10:51:37.628Z,8.43
2019-05-23T11:01:45.681Z,8.08
2019-05-23T11:06:52.255Z,10.70
2019-05-23T11:11:58.146Z,8.60
2019-05-23T11:17:02.666Z,7.12
2019-05-23T11:22:07.887Z,6.45
2019-05-23T11:27:12.047Z,7.83
2019-05-23T11:32:20.438Z,8.23
2019-05-23T11:37:25.778Z,8.13
2019-05-23T11:42:31.637Z,9.40
2019-05-23T11:47:37.640Z,7.60
2019-05-23T11:52:41.938Z,7.55
2019-05-23T11:57:46.462Z,8.00
2019-05-23T12:02:51.034Z,10.23
2019-05-23T12:07:55.216Z,8.55
2019-05-23T12:12:59.727Z,11.55
2019-05-23T12:18:05.347Z,8.93
2019-05-23T12:23:10.982Z,14.33
2019-05-23T12:28:15.462Z,8.93
2019-05-23T12:33:19.705Z,7.03
2019-05-23T12:38:26.250Z,7.85
2019-05-23T12:43:30.781Z,10.63
2019-05-23T12:48:45.287Z,10.13
2019-05-23T12:53:52.222Z,9.35
2019-05-23T12:58:59.144Z,10.90
2019-05-23T13:04:04.649Z,7.05
2019-05-23T13:09:09.940Z,6.95
2019-05-23T13:14:14.940Z,11.28
2019-05-23T13:19:19.176Z,8.10
2019-05-23T13:29:28.799Z,9.73
2019-05-23T13:34:34.564Z,12.47
2019-05-23T13:39:42.076Z,6.97
2019-05-23T13:44:48.875Z,9.65
2019-05-23T13:49:55.395Z,9.83
2019-05-23T13:55:01.201Z,7.08
2019-05-23T14:00:06.536Z,8.58
2019-05-23T14:05:12.548Z,7.25
2019-05-23T14:10:18.581Z,7.90
2019-05-23T14:15:31.860Z,8.20
2019-05-23T14:20:36.408Z,7.80
2019-05-23T14:31:14.535Z,7.00
2019-05-23T14:36:36.683Z,10.23
2019-05-23T14:41:49.542Z,8.38
2019-05-23T14:47:19.491Z,8.28
2019-05-23T14:52:29.307Z,7.33
2019-05-23T14:57:37.819Z,5.25
2019-05-23T15:02:45.140Z,7.60
2019-05-23T15:07:52.970Z,7.17
2019-05-23T15:12:57.992Z,8.95
2019-05-23T15:18:02.216Z,7.50
2019-05-23T15:23:06.378Z,7.55
2019-05-23T15:28:10.937Z,8.85
2019-05-23T15:33:18.395Z,7.42
2019-05-23T15:38:35.509Z,9.38
2019-05-23T15:43:46.596Z,8.83
2019-05-23T15:48:51.290Z,9.20
2019-05-23T15:54:02.174Z,9.03
2019-05-23T15:59:22.973Z,10.23
2019-05-23T16:04:27.696Z,10.82
2019-05-23T16:09:36.043Z,11.43
2019-05-23T16:14:42.613Z,9.55
2019-05-23T16:19:50.649Z,8.43
2019-05-23T16:24:56.376Z,10.10
2019-05-23T16:30:00.826Z,9.20
2019-05-23T16:40:12.262Z,8.83
2019-05-23T16:45:36.584Z,10.20
2019-05-23T16:50:40.754Z,13.60
2019-05-23T16:55:53.775Z,12.73
2019-05-23T17:01:24.068Z,14.05
2019-05-23T17:06:36.578Z,10.13
2019-05-23T17:11:58.567Z,11.75
2019-05-23T17:17:36.442Z,9.83
2019-05-23T17:22:45.813Z,12.37
2019-05-23T17:28:11.794Z,13.72
2019-05-23T17:33:17.999Z,15.85
2019-05-23T17:38:22.777Z,16.55
2019-05-23T17:43:27.151Z,15.63
2019-05-23T17:48:31.652Z,12.33
2019-05-23T17:53:35.788Z,15.72
2019-05-23T17:58:40.540Z,11.22
2019-05-23T18:03:44.901Z,13.83
2019-05-23T18:08:50.155Z,14.38
2019-05-23T18:13:57.129Z,9.93
2019-05-23T18:19:02.605Z,9.85
2019-05-23T18:24:08.482Z,7.92
2019-05-23T18:29:12.657Z,11.53
2019-05-23T18:34:17.763Z,6.80
2019-05-23T18:39:22.805Z,6.58
2019-05-23T18:44:27.518Z,13.90
2019-05-23T18:49:31.732Z,8.08
2019-05-23T18:54:35.914Z,12.78
2019-05-23T18:59:40.313Z,8.23
2019-05-23T19:04:47.494Z,10.58
2019-05-23T19:09:51.328Z,11.55
2019-05-23T19:14:55.327Z,7.00
2019-05-23T19:20:00.379Z,11.25
2019-05-23T19:25:06.749Z,10.23
2019-05-23T19:30:12.136Z,8.48
2019-05-23T19:35:16.252Z,9.68
2019-05-23T19:40:24.153Z,10.58
2019-05-23T19:45:31.797Z,10.23
2019-05-23T19:50:37.766Z,11.50
2019-05-23T19:55:42.499Z,12.90
2019-05-23T20:00:47.981Z,8.68
2019-05-23T20:05:53.311Z,9.28
2019-05-23T20:10:57.315Z,12.93
2019-05-23T20:16:01.835Z,14.73
2019-05-23T20:26:13.087Z,19.70
2019-05-23T20:31:18.418Z,20.43
2019-05-23T20:36:22.583Z,15.05
2019-05-23T20:41:27.713Z,13.93
2019-05-23T20:46:33.598Z,17.17
2019-05-23T20:51:38.500Z,16.00
2019-05-23T20:56:45.651Z,19.85
2019-05-23T21:01:50.929Z,17.95
2019-05-23T21:06:55.075Z,16.80
2019-05-23T21:11:59.309Z,16.97
2019-05-23T21:17:03.790Z,16.87
2019-05-23T21:22:11.334Z,17.57
2019-05-23T21:27:15.813Z,22.48
2019-05-23T21:32:20.056Z,21.87
2019-05-23T21:37:24.172Z,19.62
2019-05-23T21:42:28.285Z,17.87
2019-05-23T21:47:32.462Z,17.07
2019-05-23T21:52:36.906Z,18.45
2019-05-23T21:57:41.331Z,21.17
2019-05-23T22:02:47.200Z,23.20
2019-05-23T22:07:52.349Z,18.73
2019-05-23T22:13:04.386Z,21.30
2019-05-23T22:18:05.987Z,17.00
2019-05-23T22:23:10.084Z,19.60
2019-05-23T22:28:14.160Z,17.62
2019-05-23T22:33:20.582Z,17.57
2019-05-23T22:38:24.805Z,20.27
2019-05-23T22:43:28.977Z,16.50
2019-05-23T22:48:33.047Z,19.20
2019-05-23T22:53:37.309Z,18.37
2019-05-23T22:58:41.399Z,22.27
2019-05-23T23:03:45.649Z,20.72
2019-05-23T23:08:50.128Z,18.92
2019-05-23T23:13:54.298Z,18.05
2019-05-23T23:18:58.541Z,24.15
2019-05-23T23:24:03.147Z,15.75
2019-05-23T23:34:11.744Z,17.65
2019-05-23T23:39:17.641Z,16.15
2019-05-23T23:44:23.009Z,15.32
2019-05-23T23:49:44.856Z,23.52
2019-05-23T23:55:07.869Z,15.95
